createdAt,value
2023-05-08T00:01:57.373Z,100925.28
2023-05-08T00:04:23.894Z,100927.47
2023-05-08T00:06:51.535Z,100919.25
2023-05-08T00:09:17.967Z,100924.47
2023-05-08T00:11:44.359Z,100917.94
2023-05-08T00:14:10.829Z,100920.72
2023-05-08T00:16:37.462Z,100927.06
2023-05-08T00:19:03.926Z,100918.66
2023-05-08T00:21:31.156Z,100918.25
2023-05-08T00:23:57.562Z,100914.72
2023-05-08T00:26:24.141Z,100916.47
2023-05-08T00:28:50.523Z,100916.31
2023-05-08T00:31:16.896Z,100913.28
2023-05-08T00:33:43.269Z,100918.66
2023-05-08T00:36:09.850Z,100923.31
2023-05-08T00:38:36.770Z,100914.91
2023-05-08T00:41:03.468Z,100916.31
2023-05-08T00:43:29.930Z,100914.59
2023-05-08T00:46:01.431Z,100909.44
2023-05-08T00:48:30.643Z,100918.66
2023-05-08T00:50:58.262Z,100925.25
2023-05-08T00:53:26.522Z,100913.22
2023-05-08T00:55:53.567Z,100920.22
2023-05-08T00:58:21.279Z,100920.81
2023-05-08T01:00:48.960Z,100924.03
2023-05-08T01:03:15.693Z,100925.47
2023-05-08T01:05:43.540Z,100926.50
2023-05-08T01:08:09.949Z,100921.91
2023-05-08T01:10:54.927Z,100927.03
2023-05-08T01:13:35.868Z,100925.63
2023-05-08T01:16:20.029Z,100929.41
2023-05-08T01:18:56.393Z,100939.31
2023-05-08T01:21:34.629Z,100933.72
2023-05-08T01:24:21.499Z,100935.31
2023-05-08T01:26:55.949Z,100939.91
2023-05-08T01:29:22.298Z,100934.31
2023-05-08T01:32:05.943Z,100933.94
2023-05-08T01:34:34.963Z,100929.44
2023-05-08T01:37:03.595Z,100936.84
2023-05-08T01:39:48.446Z,100938.44
2023-05-08T01:42:40.185Z,100939.34
2023-05-08T01:45:39.125Z,100934.94
2023-05-08T01:48:11.051Z,100939.75
2023-05-08T01:50:50.688Z,100939.88
2023-05-08T01:53:22.858Z,100944.41
2023-05-08T01:55:54.486Z,100959.13
2023-05-08T01:58:23.076Z,100962.78
2023-05-08T02:00:51.455Z,100957.81
2023-05-08T02:03:20.944Z,100952.59
2023-05-08T02:05:49.108Z,100950.78
2023-05-08T02:08:16.697Z,100957.00
2023-05-08T02:10:43.555Z,100958.41
2023-05-08T02:13:11.456Z,100964.38
2023-05-08T02:15:39.835Z,100967.16
2023-05-08T02:18:08.552Z,100972.78
2023-05-08T02:20:36.644Z,100967.59
2023-05-08T02:23:03.544Z,100974.78
2023-05-08T02:25:31.121Z,100973.78
2023-05-08T02:27:59.037Z,100977.00
2023-05-08T02:30:27.544Z,100980.22
2023-05-08T02:32:58.933Z,100985.44
2023-05-08T02:35:30.851Z,100982.53
2023-05-08T02:37:58.526Z,100987.53
2023-05-08T02:40:29.096Z,100990.53
2023-05-08T02:42:56.046Z,100997.16
2023-05-08T02:45:25.720Z,101004.25
2023-05-08T02:48:18.976Z,101010.34
2023-05-08T02:51:05.178Z,101018.66
2023-05-08T02:53:51.736Z,101017.66
2023-05-08T02:56:44.107Z,101023.75
2023-05-08T02:59:19.195Z,101008.44
2023-05-08T03:01:59.819Z,101013.06
2023-05-08T03:04:32.219Z,101015.25
2023-05-08T03:07:00.698Z,101013.25
2023-05-08T03:09:36.870Z,101013.16
2023-05-08T03:12:08.591Z,101011.75
2023-05-08T03:14:41.937Z,101012.94
2023-05-08T03:17:12.982Z,101009.94
2023-05-08T03:19:41.954Z,101013.06
2023-05-08T03:22:10.201Z,101011.56
2023-05-08T03:24:38.816Z,101011.84
2023-05-08T03:27:06.201Z,101006.06
2023-05-08T03:29:33.893Z,101005.44
2023-05-08T03:32:02.295Z,101008.03
2023-05-08T03:34:30.184Z,101010.03
2023-05-08T03:36:56.919Z,101008.25
2023-05-08T03:39:25.460Z,100997.63
2023-05-08T03:41:52.051Z,101010.47
2023-05-08T03:44:18.995Z,101012.47
2023-05-08T03:46:47.425Z,101009.22
2023-05-08T03:49:14.838Z,101010.47
2023-05-08T03:51:42.118Z,101015.06
2023-05-08T03:54:08.531Z,101008.75
2023-05-08T03:56:35.045Z,101007.84
2023-05-08T03:59:17.307Z,101005.25
2023-05-08T04:01:59.968Z,101009.53
2023-05-08T04:04:40.839Z,101016.16
2023-05-08T04:07:23.026Z,101013.25
2023-05-08T04:09:56.241Z,101014.25
2023-05-08T04:12:45.222Z,101023.56
2023-05-08T04:15:20.460Z,101015.56
2023-05-08T04:17:55.819Z,101011.25
2023-05-08T04:20:25.898Z,101011.66
2023-05-08T04:22:54.356Z,101013.97
2023-05-08T04:25:21.517Z,101003.72
2023-05-08T04:27:51.080Z,101004.25
2023-05-08T04:30:18.137Z,101011.34
2023-05-08T04:32:46.715Z,101004.66
2023-05-08T04:35:14.078Z,101013.84
2023-05-08T04:37:42.971Z,101014.25
2023-05-08T04:40:10.523Z,101014.06
2023-05-08T04:42:38.736Z,101030.25
2023-05-08T04:45:06.443Z,101022.75
2023-05-08T04:47:32.934Z,101029.38
2023-05-08T04:50:00.710Z,101030.47
2023-05-08T04:52:28.785Z,101033.06
2023-05-08T04:54:55.270Z,101040.84
2023-05-08T04:57:21.709Z,101039.25
2023-05-08T04:59:48.101Z,101040.56
2023-05-08T05:02:14.566Z,101040.91
2023-05-08T05:04:41.008Z,101049.41
2023-05-08T05:07:07.412Z,101040.03
2023-05-08T05:09:36.978Z,101048.84
2023-05-08T05:12:04.287Z,101046.66
2023-05-08T05:14:30.894Z,101052.06
2023-05-08T05:16:57.287Z,101056.88
2023-05-08T05:19:23.724Z,101064.06
2023-05-08T05:21:50.163Z,101068.44
2023-05-08T05:24:16.597Z,101069.84
2023-05-08T05:26:44.164Z,101074.06
2023-05-08T05:29:10.563Z,101079.88
2023-05-08T05:31:37.283Z,101074.88
2023-05-08T05:34:03.873Z,101085.47
2023-05-08T05:36:30.708Z,101086.19
2023-05-08T05:38:57.247Z,101080.22
2023-05-08T05:41:24.287Z,101086.59
2023-05-08T05:43:50.942Z,101081.06
2023-05-08T05:46:18.100Z,101085.81
2023-05-08T05:48:44.514Z,101084.47
2023-05-08T05:51:10.906Z,101083.19
2023-05-08T05:53:37.412Z,101085.66
2023-05-08T05:56:03.930Z,101086.09
2023-05-08T05:58:30.324Z,101086.88
2023-05-08T06:01:00.947Z,101082.38
2023-05-08T06:03:27.893Z,101085.78
2023-05-08T06:05:55.779Z,101089.38
2023-05-08T06:08:23.003Z,101083.19
2023-05-08T06:10:49.479Z,101085.66
2023-05-08T06:13:16.341Z,101093.59
2023-05-08T06:15:42.995Z,101095.50
2023-05-08T06:18:09.513Z,101097.88
2023-05-08T06:20:38.226Z,101097.25
2023-05-08T06:23:05.529Z,101101.44
2023-05-08T06:25:32.384Z,101098.94
2023-05-08T06:28:02.261Z,101101.44
2023-05-08T06:30:28.657Z,101102.56
2023-05-08T06:32:55.214Z,101106.75
2023-05-08T06:35:21.850Z,101109.66
2023-05-08T06:37:48.392Z,101117.47
2023-05-08T06:40:14.944Z,101113.66
2023-05-08T06:42:41.714Z,101118.84
2023-05-08T06:45:09.280Z,101115.06
2023-05-08T06:47:35.843Z,101120.44
2023-05-08T06:50:02.487Z,101119.25
2023-05-08T06:52:29.015Z,101115.81
2023-05-08T06:54:55.508Z,101117.41
2023-05-08T06:57:22.012Z,101117.09
2023-05-08T06:59:48.405Z,101120.06
2023-05-08T07:02:16.154Z,101119.38
2023-05-08T07:04:44.317Z,101120.56
2023-05-08T07:07:11.683Z,101127.78
2023-05-08T07:09:38.250Z,101125.75
2023-05-08T07:12:05.201Z,101129.91
2023-05-08T07:14:31.701Z,101129.22
2023-05-08T07:17:03.748Z,101130.09
2023-05-08T07:19:30.382Z,101130.69
2023-05-08T07:22:00.925Z,101123.16
2023-05-08T07:24:27.420Z,101128.06
2023-05-08T07:26:53.929Z,101130.72
2023-05-08T07:29:20.734Z,101137.34
2023-05-08T07:31:48.522Z,101131.34
2023-05-08T07:34:15.264Z,101131.91
2023-05-08T07:36:41.902Z,101129.13
2023-05-08T07:39:08.337Z,101130.31
2023-05-08T07:41:36.051Z,101126.22
2023-05-08T07:44:03.203Z,101134.81
2023-05-08T07:46:29.690Z,101130.78
2023-05-08T07:48:56.330Z,101136.31
2023-05-08T07:51:22.827Z,101138.44
2023-05-08T07:53:50.900Z,101131.84
2023-05-08T07:56:17.493Z,101141.47
2023-05-08T07:58:45.878Z,101134.97
2023-05-08T08:01:12.277Z,101137.31
2023-05-08T08:03:38.766Z,101126.38
2023-05-08T08:06:05.421Z,101135.19
2023-05-08T08:08:31.819Z,101124.06
2023-05-08T08:10:58.197Z,101124.00
2023-05-08T08:13:24.754Z,101126.91
2023-05-08T08:15:52.064Z,101126.50
2023-05-08T08:18:19.105Z,101124.19
2023-05-08T08:20:45.591Z,101126.38
2023-05-08T08:23:12.005Z,101125.47
2023-05-08T08:25:38.586Z,101131.63
2023-05-08T08:28:14.177Z,101125.31
2023-05-08T08:30:40.914Z,101124.00
2023-05-08T08:33:07.534Z,101122.00
2023-05-08T08:35:33.972Z,101117.81
2023-05-08T08:38:02.611Z,101123.59
2023-05-08T08:40:29.132Z,101111.69
2023-05-08T08:42:59.113Z,101115.00
2023-05-08T08:45:25.832Z,101122.59
2023-05-08T08:47:53.377Z,101122.00
2023-05-08T08:50:22.016Z,101128.09
2023-05-08T08:53:06.550Z,101124.78
2023-05-08T08:55:35.819Z,101126.78
2023-05-08T08:58:17.974Z,101128.41
2023-05-08T09:00:44.667Z,101132.59
2023-05-08T09:03:11.204Z,101131.09
2023-05-08T09:05:43.112Z,101128.19
2023-05-08T09:08:10.792Z,101134.59
2023-05-08T09:10:37.295Z,101130.09
2023-05-08T09:13:04.819Z,101130.19
2023-05-08T09:15:34.945Z,101129.31
2023-05-08T09:18:02.988Z,101135.53
2023-05-08T09:20:30.145Z,101143.28
2023-05-08T09:23:06.622Z,101140.25
2023-05-08T09:25:50.668Z,101140.44
2023-05-08T09:28:27.102Z,101142.94
2023-05-08T09:30:59.836Z,101136.84
2023-05-08T09:33:28.349Z,101134.47
2023-05-08T09:35:56.247Z,101143.75
2023-05-08T09:38:37.710Z,101139.50
2023-05-08T09:41:07.576Z,101139.16
2023-05-08T09:43:34.401Z,101149.31
2023-05-08T09:46:19.362Z,101149.22
2023-05-08T09:48:46.013Z,101154.56
2023-05-08T09:51:12.511Z,101148.31
2023-05-08T09:53:39.049Z,101145.09
2023-05-08T09:56:06.160Z,101148.13
2023-05-08T09:58:43.686Z,101149.50
2023-05-08T10:01:28.901Z,101156.03
2023-05-08T10:03:55.561Z,101157.69
2023-05-08T10:06:22.007Z,101155.53
2023-05-08T10:08:49.516Z,101156.31
2023-05-08T10:11:18.042Z,101159.81
2023-05-08T10:13:45.496Z,101173.81
2023-05-08T10:16:18.465Z,101163.19
2023-05-08T10:18:48.473Z,101169.03
2023-05-08T10:21:16.173Z,101170.13
2023-05-08T10:23:44.226Z,101170.69
2023-05-08T10:26:16.383Z,101170.81
2023-05-08T10:28:55.791Z,101161.88
2023-05-08T10:31:25.832Z,101165.47
2023-05-08T10:33:55.901Z,101162.81
2023-05-08T10:36:24.413Z,101165.78
2023-05-08T10:38:51.931Z,101173.97
2023-05-08T10:41:19.976Z,101168.03
2023-05-08T10:43:46.862Z,101168.06
2023-05-08T10:46:22.137Z,101158.59
2023-05-08T10:49:00.583Z,101161.75
2023-05-08T10:51:41.883Z,101158.97
2023-05-08T10:54:13.844Z,101158.84
2023-05-08T10:56:40.292Z,101159.59
2023-05-08T10:59:06.933Z,101167.44
2023-05-08T11:01:33.416Z,101166.09
2023-05-08T11:04:00.142Z,101149.25
2023-05-08T11:06:46.228Z,101155.84
2023-05-08T11:09:30.327Z,101152.78
2023-05-08T11:12:16.250Z,101144.78
2023-05-08T11:14:43.884Z,101136.28
2023-05-08T11:17:10.769Z,101131.84
2023-05-08T11:19:38.037Z,101142.06
2023-05-08T11:22:19.804Z,101132.06
2023-05-08T11:24:53.774Z,101142.56
2023-05-08T11:27:49.088Z,101134.34
2023-05-08T11:30:36.060Z,101146.81
2023-05-08T11:33:06.071Z,101143.03
2023-05-08T11:35:52.148Z,101152.50
2023-05-08T11:38:27.281Z,101143.94
2023-05-08T11:41:04.598Z,101135.31
2023-05-08T11:43:33.881Z,101137.06
2023-05-08T11:46:04.344Z,101136.19
2023-05-08T11:48:31.778Z,101141.66
2023-05-08T11:50:59.998Z,101140.56
2023-05-08T11:53:26.746Z,101137.63
2023-05-08T11:55:53.763Z,101134.09
2023-05-08T11:58:20.451Z,101142.66
2023-05-08T12:00:48.356Z,101132.09
2023-05-08T12:03:17.780Z,101129.31
2023-05-08T12:05:44.825Z,101128.22
2023-05-08T12:08:12.762Z,101121.03
2023-05-08T12:10:59.912Z,101120.75
2023-05-08T12:13:30.572Z,101118.53
2023-05-08T12:15:59.004Z,101118.59
2023-05-08T12:18:28.244Z,101119.34
2023-05-08T12:20:57.729Z,101113.13
2023-05-08T12:23:30.879Z,101112.75
2023-05-08T12:26:01.270Z,101118.19
2023-05-08T12:28:28.337Z,101114.22
2023-05-08T12:30:54.990Z,101123.28
2023-05-08T12:33:21.995Z,101119.16
2023-05-08T12:35:49.205Z,101125.53
2023-05-08T12:38:15.621Z,101120.59
2023-05-08T12:40:45.419Z,101117.00
2023-05-08T12:43:12.248Z,101110.44
2023-05-08T12:45:41.147Z,101111.06
2023-05-08T12:48:12.386Z,101104.84
2023-05-08T12:50:41.843Z,101109.72
2023-05-08T12:53:12.436Z,101114.41
2023-05-08T12:55:40.733Z,101113.09
2023-05-08T12:58:14.267Z,101107.38
2023-05-08T13:00:43.800Z,101103.81
2023-05-08T13:03:12.367Z,101109.72
2023-05-08T13:05:44.351Z,101107.94
2023-05-08T13:08:11.332Z,101109.22
2023-05-08T13:10:54.801Z,101100.84
2023-05-08T13:13:26.023Z,101103.16
2023-05-08T13:15:54.982Z,101098.97
2023-05-08T13:18:26.802Z,101100.44
2023-05-08T13:20:54.353Z,101095.59
2023-05-08T13:23:20.831Z,101100.19
2023-05-08T13:25:47.304Z,101089.22
2023-05-08T13:28:13.758Z,101088.22
2023-05-08T13:30:40.538Z,101082.50
2023-05-08T13:33:07.851Z,101096.19
2023-05-08T13:35:34.971Z,101087.19
2023-05-08T13:38:02.126Z,101088.03
2023-05-08T13:40:28.820Z,101089.00
2023-05-08T13:42:55.314Z,101088.38
2023-05-08T13:45:22.040Z,101087.47
2023-05-08T13:47:49.622Z,101080.53
2023-05-08T13:50:18.399Z,101067.13
2023-05-08T13:52:45.250Z,101068.81
2023-05-08T13:55:13.672Z,101070.00
2023-05-08T13:57:40.656Z,101073.81
2023-05-08T14:00:08.863Z,101069.81
2023-05-08T14:02:37.221Z,101066.41
2023-05-08T14:05:04.547Z,101058.13
2023-05-08T14:07:31.055Z,101057.59
2023-05-08T14:09:57.618Z,101058.91
2023-05-08T14:12:24.072Z,101056.28
2023-05-08T14:14:50.577Z,101052.06
2023-05-08T14:17:17.148Z,101052.34
2023-05-08T14:19:43.848Z,101054.28
2023-05-08T14:22:10.418Z,101057.56
2023-05-08T14:24:36.913Z,101046.78
2023-05-08T14:27:05.906Z,101048.56
2023-05-08T14:29:34.189Z,101048.31
2023-05-08T14:32:01.573Z,101037.94
2023-05-08T14:34:28.146Z,101035.00
2023-05-08T14:36:54.811Z,101018.94
2023-05-08T14:39:21.404Z,101019.53
2023-05-08T14:42:02.381Z,101019.78
2023-05-08T14:44:34.544Z,101025.56
2023-05-08T14:47:01.337Z,101024.69
2023-05-08T14:49:36.542Z,101022.78
2023-05-08T14:52:05.578Z,101023.56
2023-05-08T14:54:32.563Z,101018.00
2023-05-08T14:56:59.322Z,101016.03
2023-05-08T14:59:25.939Z,101012.75
2023-05-08T15:01:52.448Z,101007.66
2023-05-08T15:04:19.134Z,101010.47
2023-05-08T15:06:45.664Z,101011.69
2023-05-08T15:09:12.419Z,101012.44
2023-05-08T15:11:39.225Z,101004.38
2023-05-08T15:14:06.138Z,101012.03
2023-05-08T15:16:32.794Z,101007.84
2023-05-08T15:18:59.253Z,101014.09
2023-05-08T15:21:28.717Z,101003.03
2023-05-08T15:23:55.659Z,101002.00
2023-05-08T15:26:22.879Z,101001.25
2023-05-08T15:28:49.552Z,101005.91
2023-05-08T15:31:16.340Z,101006.34
2023-05-08T15:33:44.918Z,101003.88
2023-05-08T15:36:13.411Z,101003.22
2023-05-08T15:38:41.059Z,101006.34
2023-05-08T15:41:12.710Z,101010.16
2023-05-08T15:43:41.015Z,101002.91
2023-05-08T15:46:07.637Z,101013.59
2023-05-08T15:48:34.245Z,101011.44
2023-05-08T15:51:00.754Z,101009.41
2023-05-08T15:53:27.289Z,101008.38
2023-05-08T15:55:57.266Z,101005.06
2023-05-08T15:58:24.165Z,101016.81
2023-05-08T16:00:50.752Z,101016.28
2023-05-08T16:03:17.520Z,101017.13
2023-05-08T16:05:44.468Z,101022.94
2023-05-08T16:08:12.816Z,101027.16
2023-05-08T16:10:41.128Z,101023.56
2023-05-08T16:13:08.391Z,101010.38
2023-05-08T16:15:35.056Z,101015.38
2023-05-08T16:18:01.859Z,101024.31
2023-05-08T16:20:28.397Z,101021.75
2023-05-08T16:22:55.974Z,101021.13
2023-05-08T16:25:23.020Z,101017.41
2023-05-08T16:27:49.975Z,101013.16
2023-05-08T16:30:17.116Z,101020.09
2023-05-08T16:32:45.763Z,101021.84
2023-05-08T16:35:12.591Z,101015.63
2023-05-08T16:37:39.434Z,101017.50
2023-05-08T16:40:07.578Z,101025.44
2023-05-08T16:42:34.112Z,101028.06
2023-05-08T16:45:00.639Z,101026.78
2023-05-08T16:47:27.109Z,101031.13
2023-05-08T16:49:53.900Z,101037.88
2023-05-08T16:52:20.367Z,101034.41
2023-05-08T16:54:46.818Z,101027.38
2023-05-08T16:57:13.392Z,101035.25
2023-05-08T16:59:41.264Z,101035.53
2023-05-08T17:02:07.722Z,101030.25
2023-05-08T17:04:34.171Z,101027.38
2023-05-08T17:07:00.565Z,101028.09
2023-05-08T17:09:27.873Z,101031.22
2023-05-08T17:11:54.287Z,101025.94
2023-05-08T17:14:20.928Z,101024.06
2023-05-08T17:16:47.388Z,101015.78
2023-05-08T17:19:13.851Z,101026.66
2023-05-08T17:21:40.361Z,101031.75
2023-05-08T17:24:07.141Z,101028.50
2023-05-08T17:26:33.672Z,101032.34
2023-05-08T17:29:00.716Z,101030.63
2023-05-08T17:31:27.499Z,101038.00
2023-05-08T17:33:53.963Z,101036.88
2023-05-08T17:36:20.437Z,101037.69
2023-05-08T17:38:47.362Z,101046.34
2023-05-08T17:41:14.370Z,101048.94
2023-05-08T17:43:40.831Z,101047.16
2023-05-08T17:46:07.723Z,101055.50
2023-05-08T17:48:34.304Z,101066.44
2023-05-08T17:51:02.685Z,101071.38
2023-05-08T17:53:30.718Z,101071.06
2023-05-08T17:55:57.703Z,101077.03
2023-05-08T17:58:24.622Z,101066.22
2023-05-08T18:00:51.114Z,101083.19
2023-05-08T18:03:17.792Z,101088.25
2023-05-08T18:05:44.515Z,101087.97
2023-05-08T18:08:10.953Z,101091.31
2023-05-08T18:10:39.167Z,101091.16
2023-05-08T18:13:05.728Z,101102.88
2023-05-08T18:15:33.031Z,101098.38
2023-05-08T18:17:59.584Z,101098.38
2023-05-08T18:20:26.070Z,101100.88
2023-05-08T18:22:52.464Z,101106.00
2023-05-08T18:25:19.082Z,101107.56
2023-05-08T18:27:48.507Z,101109.16
2023-05-08T18:30:15.158Z,101103.56
2023-05-08T18:32:41.825Z,101105.03
2023-05-08T18:35:08.642Z,101110.25
2023-05-08T18:37:35.053Z,101113.56
2023-05-08T18:40:01.563Z,101122.13
2023-05-08T18:42:28.026Z,101121.13
2023-05-08T18:44:55.198Z,101122.91
2023-05-08T18:47:21.597Z,101123.75
2023-05-08T18:49:51.565Z,101121.75
2023-05-08T18:52:18.148Z,101126.81
2023-05-08T18:54:44.548Z,101124.28
2023-05-08T18:57:10.962Z,101118.34
2023-05-08T18:59:37.617Z,101119.16
2023-05-08T19:02:03.988Z,101135.63
2023-05-08T19:04:30.388Z,101135.09
2023-05-08T19:06:56.914Z,101130.59
2023-05-08T19:09:23.365Z,101138.13
2023-05-08T19:11:49.747Z,101143.25
2023-05-08T19:14:16.166Z,101148.38
2023-05-08T19:16:42.548Z,101147.50
2023-05-08T19:19:08.963Z,101153.16
2023-05-08T19:21:35.422Z,101151.06
2023-05-08T19:24:01.934Z,101152.03
2023-05-08T19:26:28.404Z,101158.09
2023-05-08T19:28:54.795Z,101155.47
2023-05-08T19:31:21.248Z,101156.19
2023-05-08T19:33:48.745Z,101159.69
2023-05-08T19:36:15.311Z,101160.31
2023-05-08T19:38:41.868Z,101165.97
2023-05-08T19:41:08.291Z,101174.50
2023-05-08T19:43:34.677Z,101171.91
2023-05-08T19:46:01.394Z,101181.63
2023-05-08T19:48:27.834Z,101182.34
2023-05-08T19:50:55.220Z,101189.16
2023-05-08T19:53:22.737Z,101186.44
2023-05-08T19:55:50.660Z,101188.06
2023-05-08T19:58:17.778Z,101193.09
2023-05-08T20:00:50.899Z,101199.91
2023-05-08T20:03:17.722Z,101204.53
2023-05-08T20:05:44.282Z,101207.13
2023-05-08T20:08:10.895Z,101210.75
2023-05-08T20:10:37.423Z,101210.53
2023-05-08T20:13:03.997Z,101210.53
2023-05-08T20:15:30.811Z,101204.94
2023-05-08T20:17:59.622Z,101200.19
2023-05-08T20:20:27.178Z,101203.84
2023-05-08T20:22:53.610Z,101202.94
2023-05-08T20:25:20.069Z,101195.13
2023-05-08T20:27:46.534Z,101194.09
2023-05-08T20:30:13.424Z,101199.31
2023-05-08T20:32:40.026Z,101188.88
2023-05-08T20:35:06.906Z,101187.69
2023-05-08T20:37:33.315Z,101190.38
2023-05-08T20:39:59.760Z,101191.06
2023-05-08T20:42:26.158Z,101189.91
2023-05-08T20:44:52.800Z,101185.22
2023-05-08T20:47:19.186Z,101190.31
2023-05-08T20:49:45.581Z,101189.31
2023-05-08T20:52:11.979Z,101190.91
2023-05-08T20:54:38.561Z,101195.94
2023-05-08T20:57:05.155Z,101186.94
2023-05-08T20:59:31.548Z,101191.44
2023-05-08T21:01:57.924Z,101197.84
2023-05-08T21:04:24.464Z,101197.38
2023-05-08T21:06:52.142Z,101187.03
2023-05-08T21:09:18.853Z,101187.03
2023-05-08T21:11:45.390Z,101177.31
2023-05-08T21:14:11.862Z,101179.13
2023-05-08T21:16:38.351Z,101175.69
2023-05-08T21:19:04.797Z,101182.50
2023-05-08T21:21:31.656Z,101185.66
2023-05-08T21:23:58.051Z,101182.16
2023-05-08T21:26:24.528Z,101179.44
2023-05-08T21:28:52.361Z,101173.09
2023-05-08T21:31:19.104Z,101177.81
2023-05-08T21:33:45.733Z,101182.34
2023-05-08T21:36:12.330Z,101178.13
2023-05-08T21:38:38.725Z,101182.16
2023-05-08T21:41:07.326Z,101177.81
2023-05-08T21:43:35.493Z,101176.94
2023-05-08T21:46:06.321Z,101181.94
2023-05-08T21:48:33.790Z,101185.34
2023-05-08T21:51:00.515Z,101184.22
2023-05-08T21:53:27.326Z,101183.44
2023-05-08T21:55:53.790Z,101185.03
2023-05-08T21:58:20.371Z,101188.66
2023-05-08T22:00:46.812Z,101188.34
2023-05-08T22:03:13.407Z,101186.34
2023-05-08T22:05:39.893Z,101188.03
2023-05-08T22:08:06.418Z,101188.34
2023-05-08T22:10:32.903Z,101189.59
2023-05-08T22:13:00.520Z,101185.97
2023-05-08T22:15:30.525Z,101194.28
2023-05-08T22:17:58.164Z,101194.47
2023-05-08T22:20:25.184Z,101185.66
2023-05-08T22:22:51.602Z,101188.28
2023-05-08T22:25:18.084Z,101189.66
2023-05-08T22:27:44.639Z,101189.06
2023-05-08T22:30:11.231Z,101184.84
2023-05-08T22:32:37.725Z,101190.94
2023-05-08T22:35:04.447Z,101190.56
2023-05-08T22:37:30.839Z,101187.50
2023-05-08T22:39:57.243Z,101188.38
2023-05-08T22:42:24.347Z,101187.84
2023-05-08T22:44:51.168Z,101194.13
2023-05-08T22:47:17.735Z,101191.81
2023-05-08T22:49:44.178Z,101191.28
2023-05-08T22:52:10.644Z,101189.91
2023-05-08T22:54:37.115Z,101196.69
2023-05-08T22:57:03.807Z,101199.00
2023-05-08T22:59:30.308Z,101197.09
2023-05-08T23:01:56.706Z,101197.19
2023-05-08T23:04:23.143Z,101195.03
2023-05-08T23:06:50.625Z,101187.00
2023-05-08T23:09:17.047Z,101177.53
2023-05-08T23:11:43.499Z,101179.44
2023-05-08T23:14:09.912Z,101185.66
2023-05-08T23:16:36.396Z,101179.56
2023-05-08T23:19:04.375Z,101186.66
2023-05-08T23:21:31.901Z,101185.72
2023-05-08T23:23:58.803Z,101189.47
2023-05-08T23:26:26.063Z,101177.81
2023-05-08T23:28:52.695Z,101181.03
2023-05-08T23:31:19.155Z,101169.69
2023-05-08T23:33:45.689Z,101170.94
2023-05-08T23:36:12.075Z,101164.47
2023-05-08T23:38:38.554Z,101166.41
2023-05-08T23:41:04.946Z,101175.59
2023-05-08T23:43:31.337Z,101162.97
2023-05-08T23:45:58.057Z,101161.84
2023-05-08T23:48:25.780Z,101162.25
2023-05-08T23:50:52.273Z,101156.16
2023-05-08T23:53:18.760Z,101159.13
2023-05-08T23:55:45.195Z,101153.44
2023-05-08T23:58:11.590Z,101153.69
